North Saint Paul, Minnesota
Current Conditions -  °F | °C
As of 4:53 PM on Tuesday 25 Nov 2014 (Local Time) from KSTP Reporting Station
Overcast Overcast  
Wind Chill: 15°   Ceiling: 6000
Heat Index: 23°   Visibility: 10mi
Dew Point: 15°   Wind: 7mph
Humidity: 72%   Direction: 120°ESE
Pressure: 30.05"   Gusts: NA
Location:  45.0145°N, 93.0259°W
Report Text: KSTP 252253Z 12006KT 10SM OVC060 M05/M09 A3005 RMK AO2 SLP187 T10501094
Loading
Personal Weather Stations






























Interactive Weather Map New forecast layout! Learn more

10-Day Weather Forecast

Advertisements
Track Severe Weather on mobile